createdAt,value
2022-12-19T00:00:17.275Z,72.97
2022-12-19T00:00:38.367Z,72.91
2022-12-19T00:00:59.394Z,72.96
2022-12-19T00:01:20.481Z,72.92
2022-12-19T00:01:41.651Z,72.91
2022-12-19T00:02:02.823Z,72.84
2022-12-19T00:02:24.112Z,72.85
2022-12-19T00:02:45.630Z,72.82
2022-12-19T00:03:09.297Z,72.86
2022-12-19T00:03:30.640Z,72.87
2022-12-19T00:03:51.780Z,72.88
2022-12-19T00:04:12.827Z,72.84
2022-12-19T00:04:33.897Z,72.81
2022-12-19T00:04:55.034Z,72.79
2022-12-19T00:05:16.072Z,72.75
2022-12-19T00:05:37.127Z,72.74
2022-12-19T00:05:58.196Z,72.72
2022-12-19T00:06:19.257Z,72.64
2022-12-19T00:06:43.536Z,72.65
2022-12-19T00:07:05.021Z,72.65
2022-12-19T00:07:26.065Z,72.60
2022-12-19T00:07:47.170Z,72.56
2022-12-19T00:08:17.548Z,72.51
2022-12-19T00:08:35.216Z,72.52
2022-12-19T00:08:56.307Z,72.52
2022-12-19T00:09:17.365Z,72.46
2022-12-19T00:09:38.456Z,72.45
2022-12-19T00:09:59.512Z,72.45
2022-12-19T00:10:20.559Z,72.39
2022-12-19T00:10:41.641Z,72.37
2022-12-19T00:11:02.704Z,72.37
2022-12-19T00:11:23.779Z,72.40
2022-12-19T00:11:44.844Z,72.39
2022-12-19T00:12:05.897Z,72.39
2022-12-19T00:12:29.506Z,72.41
2022-12-19T00:12:50.799Z,72.45
2022-12-19T00:13:11.865Z,72.47
2022-12-19T00:13:33.639Z,72.47
2022-12-19T00:13:59.886Z,72.58
2022-12-19T00:14:20.930Z,72.65
2022-12-19T00:14:41.996Z,72.64
2022-12-19T00:15:03.050Z,72.70
2022-12-19T00:15:24.145Z,72.72
2022-12-19T00:15:45.230Z,72.70
2022-12-19T00:16:06.307Z,72.77
2022-12-19T00:16:27.418Z,72.73
2022-12-19T00:16:48.464Z,72.71
2022-12-19T00:17:09.579Z,72.70
2022-12-19T00:17:30.838Z,72.65
2022-12-19T00:17:51.915Z,72.63
2022-12-19T00:18:13.105Z,72.64
2022-12-19T00:18:34.128Z,72.59
2022-12-19T00:18:55.660Z,72.60
2022-12-19T00:19:16.776Z,72.57
2022-12-19T00:19:37.827Z,72.54
2022-12-19T00:19:58.882Z,72.54
2022-12-19T00:20:19.946Z,72.55
2022-12-19T00:20:41.011Z,72.53
2022-12-19T00:21:02.063Z,72.55
2022-12-19T00:21:23.123Z,72.54
2022-12-19T00:21:44.177Z,72.61
2022-12-19T00:22:10.890Z,72.57
2022-12-19T00:22:32.219Z,72.54
2022-12-19T00:22:53.304Z,72.52
2022-12-19T00:23:14.371Z,72.50
2022-12-19T00:23:35.456Z,72.40
2022-12-19T00:23:56.500Z,72.33
2022-12-19T00:24:20.985Z,72.26
2022-12-19T00:24:42.806Z,72.29
2022-12-19T00:25:03.855Z,72.26
2022-12-19T00:25:25.371Z,72.30
2022-12-19T00:25:47.361Z,72.26
2022-12-19T00:26:09.802Z,72.31
2022-12-19T00:26:30.875Z,72.29
2022-12-19T00:26:51.932Z,72.29
2022-12-19T00:27:13.014Z,72.29
2022-12-19T00:27:34.065Z,72.27
2022-12-19T00:27:55.304Z,72.30
2022-12-19T00:28:16.360Z,72.30
2022-12-19T00:28:39.407Z,72.24
2022-12-19T00:29:00.438Z,72.27
2022-12-19T00:29:22.179Z,72.22
2022-12-19T00:29:43.233Z,72.19
2022-12-19T00:30:04.305Z,72.08
2022-12-19T00:30:25.396Z,72.07
2022-12-19T00:30:47.076Z,72.05
2022-12-19T00:31:08.190Z,71.98
2022-12-19T00:31:29.292Z,71.93
2022-12-19T00:31:50.437Z,71.94
2022-12-19T00:32:11.478Z,71.97
2022-12-19T00:32:34.716Z,72.04
2022-12-19T00:32:55.921Z,72.02
2022-12-19T00:33:17.258Z,72.03
2022-12-19T00:33:39.445Z,71.99
2022-12-19T00:34:05.243Z,72.00
2022-12-19T00:34:26.306Z,72.02
2022-12-19T00:34:47.375Z,71.94
2022-12-19T00:35:08.432Z,71.97
2022-12-19T00:35:29.495Z,71.91
2022-12-19T00:35:50.551Z,71.92
2022-12-19T00:36:11.611Z,71.90
2022-12-19T00:36:32.682Z,71.84
2022-12-19T00:36:53.737Z,71.86
2022-12-19T00:37:14.794Z,71.79
2022-12-19T00:37:35.856Z,71.82
2022-12-19T00:37:59.933Z,71.83
2022-12-19T00:38:21.157Z,71.82
2022-12-19T00:38:42.211Z,71.77
2022-12-19T00:39:07.764Z,71.78
2022-12-19T00:39:30.282Z,71.80
2022-12-19T00:39:51.355Z,71.76
2022-12-19T00:40:12.404Z,71.72
2022-12-19T00:40:33.459Z,71.69
2022-12-19T00:40:54.520Z,71.64
2022-12-19T00:41:15.609Z,71.66
2022-12-19T00:41:36.640Z,71.65
2022-12-19T00:41:57.754Z,71.66
2022-12-19T00:42:18.816Z,71.68
2022-12-19T00:42:39.935Z,71.67
2022-12-19T00:43:00.949Z,71.67
2022-12-19T00:43:22.047Z,71.58
2022-12-19T00:43:43.204Z,71.54
2022-12-19T00:44:04.229Z,71.59
2022-12-19T00:44:25.302Z,71.51
2022-12-19T00:44:46.363Z,71.50
2022-12-19T00:45:07.448Z,71.50
2022-12-19T00:45:28.548Z,71.50
2022-12-19T00:45:51.370Z,71.48
2022-12-19T00:46:12.463Z,71.48
2022-12-19T00:46:33.620Z,71.46
2022-12-19T00:46:54.694Z,71.39
2022-12-19T00:47:15.755Z,71.36
2022-12-19T00:47:36.832Z,71.34
2022-12-19T00:47:57.862Z,71.34
2022-12-19T00:48:18.935Z,71.29
2022-12-19T00:48:40.156Z,71.32
2022-12-19T00:49:01.329Z,71.30
2022-12-19T00:49:22.388Z,71.24
2022-12-19T00:49:43.431Z,71.25
2022-12-19T00:50:05.262Z,71.26
2022-12-19T00:50:26.338Z,71.23
2022-12-19T00:50:47.436Z,71.24
2022-12-19T00:51:08.497Z,71.25
2022-12-19T00:51:29.550Z,71.21
2022-12-19T00:51:50.620Z,71.19
2022-12-19T00:52:11.714Z,71.13
2022-12-19T00:52:32.763Z,71.13
2022-12-19T00:52:54.994Z,71.16
2022-12-19T00:53:16.043Z,71.12
2022-12-19T00:53:37.119Z,71.09
2022-12-19T00:53:58.176Z,71.10
2022-12-19T00:54:19.848Z,71.04
2022-12-19T00:54:41.397Z,71.07
2022-12-19T00:55:02.634Z,71.04
2022-12-19T00:55:26.078Z,71.09
2022-12-19T00:55:47.151Z,71.06
2022-12-19T00:56:08.198Z,71.11
2022-12-19T00:56:29.292Z,71.06
2022-12-19T00:56:50.336Z,71.09
2022-12-19T00:57:11.417Z,71.05
2022-12-19T00:57:32.466Z,71.04
2022-12-19T00:57:53.524Z,71.00
2022-12-19T00:58:17.101Z,70.94
2022-12-19T00:58:42.111Z,70.94
2022-12-19T00:59:05.131Z,70.94
2022-12-19T00:59:26.822Z,70.93
2022-12-19T00:59:48.106Z,70.93
2022-12-19T01:00:09.174Z,70.91
2022-12-19T01:00:30.238Z,70.85
2022-12-19T01:00:51.344Z,70.81
2022-12-19T01:01:12.445Z,70.84
2022-12-19T01:01:33.730Z,70.78
2022-12-19T01:01:55.078Z,70.78
2022-12-19T01:02:16.391Z,70.79
2022-12-19T01:02:37.642Z,70.71
2022-12-19T01:02:58.913Z,70.72
2022-12-19T01:03:20.049Z,70.61
2022-12-19T01:03:52.888Z,70.64
2022-12-19T01:04:41.074Z,70.67
2022-12-19T01:05:02.111Z,70.64
2022-12-19T01:05:23.160Z,70.63
2022-12-19T01:05:44.508Z,70.58
2022-12-19T01:06:05.595Z,70.61
2022-12-19T01:06:26.993Z,70.62
2022-12-19T01:06:48.297Z,70.52
2022-12-19T01:07:09.317Z,70.53
2022-12-19T01:07:30.374Z,70.56
2022-12-19T01:07:51.477Z,70.55
2022-12-19T01:08:12.515Z,70.54
2022-12-19T01:08:33.561Z,70.54
2022-12-19T01:08:54.620Z,70.54
2022-12-19T01:09:15.684Z,70.48
2022-12-19T01:09:36.770Z,70.51
2022-12-19T01:09:57.836Z,70.45
2022-12-19T01:10:18.891Z,70.48
2022-12-19T01:10:39.960Z,70.43
2022-12-19T01:11:01.020Z,70.46
2022-12-19T01:11:22.106Z,70.41
2022-12-19T01:11:43.187Z,70.43
2022-12-19T01:12:04.226Z,70.43
2022-12-19T01:12:25.327Z,70.33
2022-12-19T01:12:46.403Z,70.35
2022-12-19T01:13:07.448Z,70.41
2022-12-19T01:13:28.519Z,70.35
2022-12-19T01:13:49.572Z,70.35
2022-12-19T01:14:10.654Z,70.33
2022-12-19T01:14:31.709Z,70.36
2022-12-19T01:14:52.778Z,70.32
2022-12-19T01:15:13.857Z,70.40
2022-12-19T01:15:34.898Z,70.34
2022-12-19T01:15:56.028Z,70.33
2022-12-19T01:16:17.128Z,70.29
2022-12-19T01:16:39.474Z,70.29
2022-12-19T01:17:00.514Z,70.29
2022-12-19T01:17:21.557Z,70.31
2022-12-19T01:17:44.243Z,70.29
2022-12-19T01:18:05.959Z,70.30
2022-12-19T01:18:27.008Z,70.30
2022-12-19T01:18:48.059Z,70.32
2022-12-19T01:19:09.154Z,70.31
2022-12-19T01:19:30.311Z,70.31
2022-12-19T01:19:51.324Z,70.28
2022-12-19T01:20:12.529Z,70.28
2022-12-19T01:20:33.603Z,70.29
2022-12-19T01:20:54.673Z,70.29
2022-12-19T01:21:15.734Z,70.27
2022-12-19T01:21:36.791Z,70.30
2022-12-19T01:21:57.845Z,70.32
2022-12-19T01:22:18.974Z,70.39
2022-12-19T01:22:40.014Z,70.37
2022-12-19T01:23:01.073Z,70.40
2022-12-19T01:23:22.127Z,70.42
2022-12-19T01:23:43.191Z,70.35
2022-12-19T01:24:04.271Z,70.35
2022-12-19T01:24:25.343Z,70.32
2022-12-19T01:24:46.418Z,70.34
2022-12-19T01:25:07.474Z,70.30
2022-12-19T01:25:28.564Z,70.29
2022-12-19T01:25:49.714Z,70.29
2022-12-19T01:26:10.740Z,70.26
2022-12-19T01:26:31.814Z,70.31
2022-12-19T01:26:52.875Z,70.30
2022-12-19T01:27:13.926Z,70.28
2022-12-19T01:27:34.982Z,70.27
2022-12-19T01:27:56.056Z,70.25
2022-12-19T01:28:17.126Z,70.28
2022-12-19T01:28:39.665Z,70.31
2022-12-19T01:29:00.729Z,70.31
2022-12-19T01:29:21.877Z,70.33
2022-12-19T01:29:52.763Z,70.33
2022-12-19T01:30:09.897Z,70.24
2022-12-19T01:30:32.171Z,70.22
2022-12-19T01:30:53.242Z,70.18
2022-12-19T01:31:14.983Z,70.15
2022-12-19T01:31:36.848Z,70.19
2022-12-19T01:31:57.923Z,70.25
2022-12-19T01:32:19.081Z,70.14
2022-12-19T01:32:40.111Z,70.16
2022-12-19T01:33:01.180Z,70.13
2022-12-19T01:33:22.240Z,70.12
2022-12-19T01:33:43.372Z,70.12
2022-12-19T01:34:06.256Z,70.18
2022-12-19T01:34:27.307Z,70.17
2022-12-19T01:34:48.490Z,70.12
2022-12-19T01:35:09.876Z,70.08
2022-12-19T01:35:36.510Z,70.06
2022-12-19T01:35:57.594Z,70.02
2022-12-19T01:36:18.662Z,70.00
2022-12-19T01:36:40.424Z,70.00
2022-12-19T01:37:01.490Z,70.01
2022-12-19T01:37:22.544Z,70.01
2022-12-19T01:37:43.611Z,70.02
2022-12-19T01:38:08.357Z,69.98
2022-12-19T01:38:29.891Z,70.00
2022-12-19T01:38:50.935Z,70.01
2022-12-19T01:39:12.003Z,70.02
2022-12-19T01:39:33.065Z,70.01
2022-12-19T01:39:56.007Z,70.02
2022-12-19T01:40:17.086Z,70.04
2022-12-19T01:40:38.171Z,70.02
2022-12-19T01:40:59.246Z,70.01
2022-12-19T01:41:22.820Z,70.04
2022-12-19T01:41:43.904Z,70.07
2022-12-19T01:42:04.961Z,70.03
2022-12-19T01:42:26.017Z,70.04
2022-12-19T01:42:47.133Z,70.03
2022-12-19T01:43:08.184Z,70.06
2022-12-19T01:43:29.224Z,70.01
2022-12-19T01:43:50.283Z,70.03
2022-12-19T01:44:11.378Z,70.03
2022-12-19T01:44:32.424Z,70.00
2022-12-19T01:44:53.475Z,69.99
2022-12-19T01:45:14.543Z,69.94
2022-12-19T01:45:39.492Z,70.04
2022-12-19T01:46:02.679Z,70.08
2022-12-19T01:46:23.791Z,70.13
2022-12-19T01:46:47.951Z,70.12
2022-12-19T01:47:09.028Z,70.03
2022-12-19T01:47:30.090Z,70.00
2022-12-19T01:47:52.525Z,69.99
2022-12-19T01:48:14.764Z,70.00
2022-12-19T01:48:35.864Z,69.96
2022-12-19T01:48:56.921Z,69.97
2022-12-19T01:49:17.979Z,69.95
2022-12-19T01:49:41.240Z,69.99
2022-12-19T01:50:02.417Z,70.02
2022-12-19T01:50:23.445Z,70.02
2022-12-19T01:50:56.045Z,70.00
2022-12-19T01:51:11.498Z,70.05
2022-12-19T01:51:32.555Z,70.03
2022-12-19T01:51:53.620Z,70.02
2022-12-19T01:52:20.755Z,69.97
2022-12-19T01:52:41.746Z,70.01
2022-12-19T01:53:02.803Z,70.08
2022-12-19T01:53:23.845Z,70.06
2022-12-19T01:53:49.188Z,70.10
2022-12-19T01:54:10.668Z,70.11
2022-12-19T01:54:31.737Z,70.01
2022-12-19T01:54:52.809Z,69.97
2022-12-19T01:55:13.879Z,70.02
2022-12-19T01:55:34.976Z,69.96
2022-12-19T01:55:56.021Z,69.95
2022-12-19T01:56:17.077Z,69.93
2022-12-19T01:56:39.297Z,69.93
2022-12-19T01:57:00.417Z,69.88
2022-12-19T01:57:21.477Z,69.91
2022-12-19T01:57:42.547Z,69.90
2022-12-19T01:58:03.619Z,69.89
2022-12-19T01:58:24.730Z,69.91
2022-12-19T01:58:45.768Z,69.93
2022-12-19T01:59:07.046Z,69.91
2022-12-19T01:59:28.120Z,69.94
2022-12-19T01:59:49.183Z,70.02
2022-12-19T02:00:10.418Z,69.96
2022-12-19T02:00:31.470Z,69.96
2022-12-19T02:00:52.637Z,69.97
2022-12-19T02:01:13.753Z,69.94
2022-12-19T02:01:35.023Z,69.98
2022-12-19T02:01:56.186Z,69.98
2022-12-19T02:02:17.499Z,69.93
2022-12-19T02:02:38.805Z,69.96
2022-12-19T02:03:00.066Z,69.97
2022-12-19T02:03:21.228Z,69.97
2022-12-19T02:03:42.284Z,69.93
2022-12-19T02:04:03.339Z,69.99
2022-12-19T02:04:24.401Z,69.97
2022-12-19T02:04:45.465Z,70.02
2022-12-19T02:05:06.654Z,69.98
2022-12-19T02:05:27.680Z,70.01
2022-12-19T02:05:48.744Z,70.00
2022-12-19T02:06:09.909Z,70.00
2022-12-19T02:06:30.933Z,69.95
2022-12-19T02:06:52.141Z,69.96
2022-12-19T02:07:16.036Z,69.99
2022-12-19T02:07:37.462Z,69.99
2022-12-19T02:07:58.520Z,70.09
2022-12-19T02:08:19.604Z,70.15
2022-12-19T02:08:40.658Z,70.18
2022-12-19T02:09:01.744Z,70.19
2022-12-19T02:09:22.770Z,70.17
2022-12-19T02:09:43.920Z,70.19
2022-12-19T02:10:04.953Z,70.21
2022-12-19T02:10:26.019Z,70.29
2022-12-19T02:10:47.097Z,70.32
2022-12-19T02:11:08.157Z,70.31
2022-12-19T02:11:29.227Z,70.36
2022-12-19T02:11:50.296Z,70.39
2022-12-19T02:12:11.380Z,70.37
2022-12-19T02:12:32.442Z,70.42
2022-12-19T02:12:53.499Z,70.45
2022-12-19T02:13:14.573Z,70.53
2022-12-19T02:13:35.643Z,70.58
2022-12-19T02:13:56.791Z,70.58
2022-12-19T02:14:17.807Z,70.61
2022-12-19T02:14:38.878Z,70.59
2022-12-19T02:15:02.718Z,70.65
2022-12-19T02:15:24.481Z,70.67
2022-12-19T02:15:45.559Z,70.73
2022-12-19T02:16:06.655Z,70.74
2022-12-19T02:16:30.102Z,70.84
2022-12-19T02:16:51.370Z,70.89
2022-12-19T02:17:12.462Z,70.95
2022-12-19T02:17:33.517Z,70.93
2022-12-19T02:17:54.643Z,70.92
2022-12-19T02:18:15.659Z,70.95
2022-12-19T02:18:36.737Z,70.95
2022-12-19T02:18:57.780Z,70.94
2022-12-19T02:19:18.835Z,70.91
2022-12-19T02:19:39.940Z,70.89
2022-12-19T02:20:00.986Z,70.90
2022-12-19T02:20:22.181Z,70.90
2022-12-19T02:20:43.187Z,70.98
2022-12-19T02:21:04.254Z,71.07
2022-12-19T02:21:25.314Z,71.12
2022-12-19T02:21:46.371Z,71.13
2022-12-19T02:22:08.946Z,71.23
2022-12-19T02:22:29.996Z,71.21
2022-12-19T02:22:51.064Z,71.25
2022-12-19T02:23:12.142Z,71.26
2022-12-19T02:23:34.135Z,71.29
2022-12-19T02:23:55.203Z,71.34
2022-12-19T02:24:16.269Z,71.38
2022-12-19T02:24:37.361Z,71.43
2022-12-19T02:24:58.436Z,71.44
2022-12-19T02:25:19.470Z,71.41
2022-12-19T02:25:40.520Z,71.37
2022-12-19T02:26:01.586Z,71.37
2022-12-19T02:26:22.646Z,71.41
2022-12-19T02:26:43.717Z,71.38
2022-12-19T02:27:04.765Z,71.43
2022-12-19T02:27:25.875Z,71.53
2022-12-19T02:27:47.061Z,71.62
2022-12-19T02:28:08.130Z,71.74
2022-12-19T02:28:29.224Z,71.72
2022-12-19T02:28:50.304Z,71.77
2022-12-19T02:29:11.375Z,71.77
2022-12-19T02:29:32.431Z,71.79
2022-12-19T02:29:53.533Z,71.77
2022-12-19T02:30:14.566Z,71.80
2022-12-19T02:30:35.611Z,71.89
2022-12-19T02:30:56.674Z,71.87
2022-12-19T02:31:17.993Z,71.85
2022-12-19T02:31:39.153Z,71.81
2022-12-19T02:32:00.239Z,71.87
2022-12-19T02:32:21.310Z,71.81
2022-12-19T02:32:42.376Z,71.78
2022-12-19T02:33:03.583Z,71.76
2022-12-19T02:33:24.634Z,71.78
2022-12-19T02:33:45.707Z,71.78
2022-12-19T02:34:06.766Z,71.80
2022-12-19T02:34:27.826Z,71.80
2022-12-19T02:34:48.884Z,71.84
2022-12-19T02:35:09.970Z,71.91
2022-12-19T02:35:33.064Z,71.96
2022-12-19T02:35:54.102Z,71.98
2022-12-19T02:36:15.149Z,72.02
2022-12-19T02:36:38.566Z,72.10
2022-12-19T02:37:00.097Z,72.15
2022-12-19T02:37:22.327Z,72.20
2022-12-19T02:37:43.834Z,72.30
2022-12-19T02:38:06.334Z,72.41
2022-12-19T02:38:30.387Z,72.38
2022-12-19T02:38:51.448Z,72.38
2022-12-19T02:39:12.507Z,72.32
2022-12-19T02:39:33.877Z,72.34
2022-12-19T02:39:54.902Z,72.32
2022-12-19T02:40:15.984Z,72.39
2022-12-19T02:40:37.040Z,72.50
2022-12-19T02:40:58.095Z,72.56
2022-12-19T02:41:19.159Z,72.62
2022-12-19T02:41:40.211Z,72.72
2022-12-19T02:42:01.340Z,72.82
2022-12-19T02:42:22.410Z,72.93
2022-12-19T02:42:44.215Z,73.03
2022-12-19T02:43:05.433Z,73.02
2022-12-19T02:43:26.495Z,73.05
2022-12-19T02:43:47.541Z,73.04
2022-12-19T02:44:10.553Z,72.99
2022-12-19T02:44:31.613Z,72.92
2022-12-19T02:44:52.674Z,72.79
2022-12-19T02:45:14.978Z,72.74
2022-12-19T02:45:40.743Z,72.74
2022-12-19T02:46:01.840Z,72.71
2022-12-19T02:46:22.935Z,72.67
2022-12-19T02:46:44.011Z,72.61
2022-12-19T02:47:05.936Z,72.60
2022-12-19T02:47:26.988Z,72.55
2022-12-19T02:47:48.057Z,72.52
2022-12-19T02:48:09.601Z,72.59
2022-12-19T02:48:30.651Z,72.67
2022-12-19T02:48:51.754Z,72.73
2022-12-19T02:49:12.786Z,72.71
2022-12-19T02:49:38.481Z,72.78
2022-12-19T02:49:59.550Z,72.72
2022-12-19T02:50:20.645Z,72.74
2022-12-19T02:50:41.824Z,72.76
2022-12-19T02:51:02.842Z,72.75
2022-12-19T02:51:23.916Z,72.75
2022-12-19T02:51:44.955Z,72.72
2022-12-19T02:52:06.015Z,72.71
2022-12-19T02:52:27.073Z,72.72
2022-12-19T02:52:48.141Z,72.61
2022-12-19T02:53:09.214Z,72.58
2022-12-19T02:53:30.423Z,72.53
2022-12-19T02:53:51.489Z,72.56
2022-12-19T02:54:12.551Z,72.50
2022-12-19T02:54:33.615Z,72.53
2022-12-19T02:54:54.673Z,72.48
2022-12-19T02:55:15.745Z,72.45
2022-12-19T02:55:36.802Z,72.45
2022-12-19T02:55:57.860Z,72.49
2022-12-19T02:56:20.610Z,72.44
2022-12-19T02:56:41.666Z,72.51
2022-12-19T02:57:02.746Z,72.51
2022-12-19T02:57:23.791Z,72.53
2022-12-19T02:57:46.467Z,72.61
2022-12-19T02:58:07.521Z,72.53
2022-12-19T02:58:28.587Z,72.60
2022-12-19T02:58:49.676Z,72.61
2022-12-19T02:59:10.755Z,72.58
2022-12-19T02:59:31.808Z,72.54
2022-12-19T02:59:52.866Z,72.54
2022-12-19T03:00:16.209Z,72.57
2022-12-19T03:00:37.268Z,72.57
2022-12-19T03:00:58.342Z,72.62
2022-12-19T03:01:19.562Z,72.63
2022-12-19T03:01:42.461Z,72.63
2022-12-19T03:02:03.777Z,72.64
2022-12-19T03:02:25.115Z,72.65
2022-12-19T03:02:55.000Z,72.64
2022-12-19T03:03:13.244Z,72.65
2022-12-19T03:03:34.352Z,72.68
2022-12-19T03:03:55.400Z,72.71
2022-12-19T03:04:16.502Z,72.70
2022-12-19T03:04:37.523Z,72.78
2022-12-19T03:04:58.592Z,72.81
2022-12-19T03:05:19.664Z,72.88
2022-12-19T03:05:40.733Z,72.88
2022-12-19T03:06:01.903Z,72.91
2022-12-19T03:06:22.913Z,72.91
2022-12-19T03:06:43.985Z,72.91
2022-12-19T03:07:06.088Z,72.91
2022-12-19T03:07:27.252Z,72.93
2022-12-19T03:07:48.320Z,72.99
2022-12-19T03:08:09.390Z,73.01
2022-12-19T03:08:32.211Z,73.04
2022-12-19T03:08:53.281Z,73.08
2022-12-19T03:09:14.442Z,73.05
2022-12-19T03:09:35.510Z,73.03
2022-12-19T03:09:56.540Z,72.99
2022-12-19T03:10:17.593Z,72.96
2022-12-19T03:10:38.675Z,72.90
2022-12-19T03:10:59.817Z,72.92
2022-12-19T03:11:20.874Z,72.97
2022-12-19T03:11:41.934Z,72.92
2022-12-19T03:12:02.999Z,72.99
2022-12-19T03:12:24.060Z,72.95
2022-12-19T03:12:45.106Z,72.96
2022-12-19T03:13:06.175Z,72.95
2022-12-19T03:13:28.488Z,72.93
2022-12-19T03:13:49.580Z,72.94
2022-12-19T03:14:10.627Z,72.95
2022-12-19T03:14:31.728Z,73.00
2022-12-19T03:14:52.771Z,73.06
2022-12-19T03:15:13.836Z,73.09
2022-12-19T03:15:34.880Z,73.16
2022-12-19T03:15:55.941Z,73.17
2022-12-19T03:16:17.067Z,73.26
2022-12-19T03:16:38.217Z,73.32
2022-12-19T03:16:59.359Z,73.36
2022-12-19T03:17:20.447Z,73.41
2022-12-19T03:17:41.530Z,73.41
2022-12-19T03:18:02.560Z,73.35
2022-12-19T03:18:23.613Z,73.33
2022-12-19T03:18:44.689Z,73.27
2022-12-19T03:19:05.748Z,73.19
2022-12-19T03:19:26.815Z,73.16
2022-12-19T03:19:47.902Z,73.09
2022-12-19T03:20:09.001Z,73.03
2022-12-19T03:20:30.058Z,72.96
2022-12-19T03:20:51.102Z,72.91
2022-12-19T03:21:12.277Z,72.93
2022-12-19T03:21:33.295Z,72.93
2022-12-19T03:21:54.369Z,72.89
2022-12-19T03:22:15.409Z,72.92
2022-12-19T03:22:36.469Z,73.01
2022-12-19T03:22:57.572Z,72.95
2022-12-19T03:23:18.596Z,72.97
2022-12-19T03:23:39.644Z,72.98
2022-12-19T03:24:00.720Z,72.95
2022-12-19T03:24:21.800Z,72.87
2022-12-19T03:24:42.838Z,72.88
2022-12-19T03:25:04.139Z,72.87
2022-12-19T03:25:25.152Z,72.82
2022-12-19T03:25:46.214Z,72.90
2022-12-19T03:26:07.341Z,72.86
2022-12-19T03:26:28.369Z,72.87
2022-12-19T03:26:49.460Z,72.86
2022-12-19T03:27:10.485Z,72.82
2022-12-19T03:27:31.575Z,72.75
2022-12-19T03:27:52.621Z,72.76
2022-12-19T03:28:13.694Z,72.81
2022-12-19T03:28:34.764Z,72.84
2022-12-19T03:28:55.820Z,72.87
2022-12-19T03:29:16.862Z,72.87
2022-12-19T03:29:37.934Z,72.86
2022-12-19T03:29:58.987Z,72.91
2022-12-19T03:30:20.194Z,72.93
2022-12-19T03:30:41.294Z,72.96
2022-12-19T03:31:02.381Z,72.95
2022-12-19T03:31:23.528Z,72.91
2022-12-19T03:31:44.545Z,72.86
2022-12-19T03:32:05.628Z,72.83
2022-12-19T03:32:26.715Z,72.77
2022-12-19T03:32:47.756Z,72.68
2022-12-19T03:33:08.823Z,72.64
2022-12-19T03:33:29.889Z,72.65
2022-12-19T03:33:50.986Z,72.60
2022-12-19T03:34:12.027Z,72.58
2022-12-19T03:34:33.072Z,72.61
2022-12-19T03:34:54.189Z,72.58
2022-12-19T03:35:15.493Z,72.61
2022-12-19T03:35:36.551Z,72.64
2022-12-19T03:35:57.619Z,72.68
2022-12-19T03:36:18.779Z,72.68
2022-12-19T03:36:39.803Z,72.68
2022-12-19T03:37:00.865Z,72.64
2022-12-19T03:37:21.920Z,72.54
2022-12-19T03:37:43.004Z,72.52
2022-12-19T03:38:04.041Z,72.52
2022-12-19T03:38:25.101Z,72.48
2022-12-19T03:38:46.164Z,72.51
2022-12-19T03:39:07.258Z,72.53
2022-12-19T03:39:29.918Z,72.54
2022-12-19T03:39:51.070Z,72.52
2022-12-19T03:40:12.263Z,72.45
2022-12-19T03:40:33.410Z,72.44
2022-12-19T03:40:54.546Z,72.39
2022-12-19T03:41:15.573Z,72.45
2022-12-19T03:41:36.633Z,72.40
2022-12-19T03:41:57.733Z,72.49
2022-12-19T03:42:18.784Z,72.52
2022-12-19T03:42:39.986Z,72.52
2022-12-19T03:43:01.265Z,72.59
2022-12-19T03:43:22.364Z,72.60
2022-12-19T03:43:43.469Z,72.60
2022-12-19T03:44:04.694Z,72.57
2022-12-19T03:44:25.910Z,72.56
2022-12-19T03:44:46.928Z,72.52
2022-12-19T03:45:08.009Z,72.47
2022-12-19T03:45:29.253Z,72.43
2022-12-19T03:45:50.625Z,72.38
2022-12-19T03:46:11.808Z,72.30
2022-12-19T03:46:32.886Z,72.31
2022-12-19T03:46:53.995Z,72.30
2022-12-19T03:47:15.011Z,72.35
2022-12-19T03:47:36.091Z,72.35
2022-12-19T03:47:57.157Z,72.34
2022-12-19T03:48:18.195Z,72.40
2022-12-19T03:48:39.269Z,72.42
2022-12-19T03:49:00.368Z,72.40
2022-12-19T03:49:21.403Z,72.43
2022-12-19T03:49:42.464Z,72.43
2022-12-19T03:50:03.511Z,72.38
2022-12-19T03:50:24.596Z,72.44
2022-12-19T03:50:46.059Z,72.43
2022-12-19T03:51:07.145Z,72.48
2022-12-19T03:51:28.319Z,72.44
2022-12-19T03:51:49.368Z,72.52
2022-12-19T03:52:10.443Z,72.54
2022-12-19T03:52:31.482Z,72.49
2022-12-19T03:52:52.553Z,72.55
2022-12-19T03:53:13.604Z,72.54
2022-12-19T03:53:34.735Z,72.51
2022-12-19T03:53:55.766Z,72.44
2022-12-19T03:54:16.816Z,72.42
2022-12-19T03:54:37.868Z,72.43
2022-12-19T03:54:58.947Z,72.42
2022-12-19T03:55:20.012Z,72.44
2022-12-19T03:55:41.134Z,72.42
2022-12-19T03:56:02.161Z,72.34
2022-12-19T03:56:23.214Z,72.31
2022-12-19T03:56:44.294Z,72.32
2022-12-19T03:57:07.006Z,72.29
2022-12-19T03:57:28.009Z,72.26
2022-12-19T03:57:49.075Z,72.25
2022-12-19T03:58:10.176Z,72.28
2022-12-19T03:58:32.770Z,72.25
2022-12-19T03:58:53.833Z,72.32
2022-12-19T03:59:14.899Z,72.36
2022-12-19T03:59:35.968Z,72.34
2022-12-19T03:59:57.088Z,72.37
2022-12-19T04:00:18.129Z,72.41
2022-12-19T04:00:39.188Z,72.45
2022-12-19T04:01:00.263Z,72.47
2022-12-19T04:01:21.407Z,72.50
2022-12-19T04:01:42.611Z,72.50
2022-12-19T04:02:04.092Z,72.54
2022-12-19T04:02:25.288Z,72.55
2022-12-19T04:02:46.353Z,72.54
2022-12-19T04:03:07.477Z,72.55
2022-12-19T04:03:28.551Z,72.54
2022-12-19T04:03:49.620Z,72.54
2022-12-19T04:04:10.735Z,72.55
2022-12-19T04:04:31.771Z,72.62
2022-12-19T04:04:52.830Z,72.59
2022-12-19T04:05:13.919Z,72.61
2022-12-19T04:05:34.973Z,72.51
2022-12-19T04:05:56.039Z,72.46
2022-12-19T04:06:17.085Z,72.45
2022-12-19T04:06:38.287Z,72.37
2022-12-19T04:06:59.327Z,72.41
2022-12-19T04:07:20.377Z,72.37
2022-12-19T04:07:41.451Z,72.42
2022-12-19T04:08:02.502Z,72.44
2022-12-19T04:08:23.565Z,72.44
2022-12-19T04:08:44.618Z,72.44
2022-12-19T04:09:05.689Z,72.47
2022-12-19T04:09:26.737Z,72.50
2022-12-19T04:09:47.831Z,72.53
2022-12-19T04:10:08.873Z,72.59
2022-12-19T04:10:29.946Z,72.56
2022-12-19T04:10:50.996Z,72.57
2022-12-19T04:11:12.065Z,72.62
2022-12-19T04:11:33.113Z,72.60
2022-12-19T04:11:54.188Z,72.57
2022-12-19T04:12:15.246Z,72.52
2022-12-19T04:12:36.329Z,72.52
2022-12-19T04:12:57.403Z,72.46
2022-12-19T04:13:18.459Z,72.45
2022-12-19T04:13:39.506Z,72.42
2022-12-19T04:14:00.568Z,72.43
2022-12-19T04:14:21.617Z,72.42
2022-12-19T04:14:42.676Z,72.37
2022-12-19T04:15:03.736Z,72.38
2022-12-19T04:15:24.794Z,72.35
2022-12-19T04:15:45.897Z,72.32
2022-12-19T04:16:07.099Z,72.33
2022-12-19T04:16:28.249Z,72.35
2022-12-19T04:16:49.269Z,72.39
2022-12-19T04:17:10.342Z,72.41
2022-12-19T04:17:31.385Z,72.38
2022-12-19T04:17:52.606Z,72.37
2022-12-19T04:18:13.680Z,72.36
2022-12-19T04:18:34.723Z,72.37
2022-12-19T04:18:55.780Z,72.34
2022-12-19T04:19:16.843Z,72.30
2022-12-19T04:19:42.441Z,72.25
2022-12-19T04:20:03.720Z,72.26
2022-12-19T04:20:24.780Z,72.22
2022-12-19T04:20:46.175Z,72.17
2022-12-19T04:21:07.207Z,72.12
2022-12-19T04:21:28.276Z,72.12
2022-12-19T04:21:49.439Z,72.09
2022-12-19T04:22:10.848Z,72.11
2022-12-19T04:22:31.898Z,72.02
2022-12-19T04:22:52.994Z,72.08
2022-12-19T04:23:14.096Z,72.03
2022-12-19T04:23:35.152Z,72.06
2022-12-19T04:23:56.216Z,72.03
2022-12-19T04:24:17.262Z,72.06
2022-12-19T04:24:38.675Z,72.09
2022-12-19T04:24:59.752Z,72.06
2022-12-19T04:25:24.018Z,72.07
2022-12-19T04:25:47.797Z,72.07
2022-12-19T04:26:08.856Z,72.08
2022-12-19T04:26:29.921Z,72.03
2022-12-19T04:26:50.965Z,72.07
2022-12-19T04:27:12.032Z,72.05
2022-12-19T04:27:33.104Z,72.00
2022-12-19T04:27:54.148Z,72.01
2022-12-19T04:28:15.226Z,71.94
2022-12-19T04:28:36.287Z,71.94
2022-12-19T04:28:57.339Z,71.96
2022-12-19T04:29:18.411Z,71.87
2022-12-19T04:29:39.469Z,71.92
2022-12-19T04:30:00.537Z,71.90
2022-12-19T04:30:21.597Z,71.96
2022-12-19T04:30:42.678Z,71.98
2022-12-19T04:31:03.815Z,71.99
2022-12-19T04:31:24.882Z,71.98
2022-12-19T04:31:45.978Z,71.97
2022-12-19T04:32:06.998Z,71.99
2022-12-19T04:32:28.072Z,71.94
2022-12-19T04:32:49.135Z,71.90
2022-12-19T04:33:10.205Z,71.96
2022-12-19T04:33:31.291Z,72.00
2022-12-19T04:33:52.360Z,72.01
2022-12-19T04:34:13.404Z,72.06
2022-12-19T04:34:37.762Z,72.08
2022-12-19T04:35:01.434Z,72.09
2022-12-19T04:35:22.488Z,72.11
2022-12-19T04:35:43.608Z,72.02